sensor_id;sensor_type;location;lat;lon;timestamp;temperature;humidity
53410;DHT22;66590;50.734;4.246;2023-02-25T00:01:37;4.60;99.90
53410;DHT22;66590;50.734;4.246;2023-02-25T00:04:26;4.60;99.90
53410;DHT22;66590;50.734;4.246;2023-02-25T00:06:54;4.70;99.90
53410;DHT22;66590;50.734;4.246;2023-02-25T00:09:34;4.70;99.90
53410;DHT22;66590;50.734;4.246;2023-02-25T00:12:01;4.70;99.90
53410;DHT22;66590;50.734;4.246;2023-02-25T00:14:29;4.80;99.90
53410;DHT22;66590;50.734;4.246;2023-02-25T00:16:59;4.90;99.90
53410;DHT22;66590;50.734;4.246;2023-02-25T00:19:26;4.80;99.90
53410;DHT22;66590;50.734;4.246;2023-02-25T00:21:53;4.70;99.90
53410;DHT22;66590;50.734;4.246;2023-02-25T00:24:20;4.70;99.90
53410;DHT22;66590;50.734;4.246;2023-02-25T00:26:51;4.60;99.90
53410;DHT22;66590;50.734;4.246;2023-02-25T00:29:18;4.60;99.90
53410;DHT22;66590;50.734;4.246;2023-02-25T00:31:47;4.60;99.90
53410;DHT22;66590;50.734;4.246;2023-02-25T00:34:15;4.70;99.90
53410;DHT22;66590;50.734;4.246;2023-02-25T00:36:42;4.70;99.90
53410;DHT22;66590;50.734;4.246;2023-02-25T00:39:13;4.70;99.90
53410;DHT22;66590;50.734;4.246;2023-02-25T00:41:42;4.70;99.90
53410;DHT22;66590;50.734;4.246;2023-02-25T00:44:17;4.70;99.90
53410;DHT22;66590;50.734;4.246;2023-02-25T00:46:47;4.70;99.90
53410;DHT22;66590;50.734;4.246;2023-02-25T00:49:14;4.60;99.90
53410;DHT22;66590;50.734;4.246;2023-02-25T00:51:58;4.60;99.90
53410;DHT22;66590;50.734;4.246;2023-02-25T00:54:26;4.60;99.90
53410;DHT22;66590;50.734;4.246;2023-02-25T00:56:53;4.70;99.90
53410;DHT22;66590;50.734;4.246;2023-02-25T00:59:27;4.70;99.90
53410;DHT22;66590;50.734;4.246;2023-02-25T01:01:55;4.90;99.90
53410;DHT22;66590;50.734;4.246;2023-02-25T01:04:25;5.00;99.90
53410;DHT22;66590;50.734;4.246;2023-02-25T01:06:56;5.00;99.90
53410;DHT22;66590;50.734;4.246;2023-02-25T01:09:26;4.90;99.90
53410;DHT22;66590;50.734;4.246;2023-02-25T01:11:53;4.80;99.90
53410;DHT22;66590;50.734;4.246;2023-02-25T01:14:25;4.90;99.90
53410;DHT22;66590;50.734;4.246;2023-02-25T01:16:52;5.00;99.90
53410;DHT22;66590;50.734;4.246;2023-02-25T01:19:24;4.80;99.90
53410;DHT22;66590;50.734;4.246;2023-02-25T01:21:56;4.70;99.90
53410;DHT22;66590;50.734;4.246;2023-02-25T01:24:24;4.60;99.90
53410;DHT22;66590;50.734;4.246;2023-02-25T01:26:53;4.50;99.90
53410;DHT22;66590;50.734;4.246;2023-02-25T01:29:22;4.50;99.90
53410;DHT22;66590;50.734;4.246;2023-02-25T01:31:52;4.40;99.90
53410;DHT22;66590;50.734;4.246;2023-02-25T01:34:20;4.40;99.90
53410;DHT22;66590;50.734;4.246;2023-02-25T01:36:48;4.40;99.90
53410;DHT22;66590;50.734;4.246;2023-02-25T01:39:18;4.30;99.90
53410;DHT22;66590;50.734;4.246;2023-02-25T01:41:46;4.40;99.90
53410;DHT22;66590;50.734;4.246;2023-02-25T01:44:15;4.30;99.90
53410;DHT22;66590;50.734;4.246;2023-02-25T01:46:44;4.20;99.90
53410;DHT22;66590;50.734;4.246;2023-02-25T01:49:19;4.30;99.90
53410;DHT22;66590;50.734;4.246;2023-02-25T01:51:50;4.30;99.90
53410;DHT22;66590;50.734;4.246;2023-02-25T01:54:18;4.30;99.90
53410;DHT22;66590;50.734;4.246;2023-02-25T01:56:52;4.40;99.90
53410;DHT22;66590;50.734;4.246;2023-02-25T01:59:23;4.40;99.90
53410;DHT22;66590;50.734;4.246;2023-02-25T02:02:27;4.40;99.90
53410;DHT22;66590;50.734;4.246;2023-02-25T02:37:20;4.10;99.90
53410;DHT22;66590;50.734;4.246;2023-02-25T02:41:09;4.10;99.90
53410;DHT22;66590;50.734;4.246;2023-02-25T03:20:46;4.20;99.90
53410;DHT22;66590;50.734;4.246;2023-02-25T03:23:19;4.40;99.90
53410;DHT22;66590;50.734;4.246;2023-02-25T03:25:50;4.50;99.90
53410;DHT22;66590;50.734;4.246;2023-02-25T03:28:25;4.50;99.90
53410;DHT22;66590;50.734;4.246;2023-02-25T03:30:58;4.50;99.90
53410;DHT22;66590;50.734;4.246;2023-02-25T03:33:31;4.50;99.90
53410;DHT22;66590;50.734;4.246;2023-02-25T03:36:08;4.50;99.90
53410;DHT22;66590;50.734;4.246;2023-02-25T03:38:43;4.50;99.90
53410;DHT22;66590;50.734;4.246;2023-02-25T03:41:12;4.50;99.90
53410;DHT22;66590;50.734;4.246;2023-02-25T03:43:44;4.50;99.90
53410;DHT22;66590;50.734;4.246;2023-02-25T03:46:12;4.60;99.90
53410;DHT22;66590;50.734;4.246;2023-02-25T03:48:40;4.60;99.90
53410;DHT22;66590;50.734;4.246;2023-02-25T03:51:10;4.60;99.90
53410;DHT22;66590;50.734;4.246;2023-02-25T03:53:38;4.60;99.90
53410;DHT22;66590;50.734;4.246;2023-02-25T03:56:08;4.70;99.90
53410;DHT22;66590;50.734;4.246;2023-02-25T03:58:37;4.70;99.90
53410;DHT22;66590;50.734;4.246;2023-02-25T04:01:06;4.80;99.90
53410;DHT22;66590;50.734;4.246;2023-02-25T04:03:35;4.80;99.90
53410;DHT22;66590;50.734;4.246;2023-02-25T04:06:02;4.70;99.90
53410;DHT22;66590;50.734;4.246;2023-02-25T04:08:31;4.70;99.90
53410;DHT22;66590;50.734;4.246;2023-02-25T04:10:58;4.70;99.90
53410;DHT22;66590;50.734;4.246;2023-02-25T04:13:25;4.50;99.90
53410;DHT22;66590;50.734;4.246;2023-02-25T04:15:52;4.40;99.90
53410;DHT22;66590;50.734;4.246;2023-02-25T04:18:19;4.50;99.90
53410;DHT22;66590;50.734;4.246;2023-02-25T04:20:46;4.60;99.90
53410;DHT22;66590;50.734;4.246;2023-02-25T04:23:19;4.60;99.90
53410;DHT22;66590;50.734;4.246;2023-02-25T04:25:48;4.70;99.90
53410;DHT22;66590;50.734;4.246;2023-02-25T04:28:15;4.70;99.90
53410;DHT22;66590;50.734;4.246;2023-02-25T04:30:42;4.70;99.90
53410;DHT22;66590;50.734;4.246;2023-02-25T04:33:10;4.60;99.90
53410;DHT22;66590;50.734;4.246;2023-02-25T04:35:37;4.60;99.90
53410;DHT22;66590;50.734;4.246;2023-02-25T04:38:08;4.50;99.90
53410;DHT22;66590;50.734;4.246;2023-02-25T04:40:36;4.40;99.90
53410;DHT22;66590;50.734;4.246;2023-02-25T04:43:04;4.50;99.90
53410;DHT22;66590;50.734;4.246;2023-02-25T04:45:31;4.50;99.90
53410;DHT22;66590;50.734;4.246;2023-02-25T04:47:59;4.50;99.90
53410;DHT22;66590;50.734;4.246;2023-02-25T04:50:26;4.50;99.90
53410;DHT22;66590;50.734;4.246;2023-02-25T04:52:53;4.50;99.90
53410;DHT22;66590;50.734;4.246;2023-02-25T04:55:20;4.60;99.90
53410;DHT22;66590;50.734;4.246;2023-02-25T04:57:47;4.60;99.90
53410;DHT22;66590;50.734;4.246;2023-02-25T05:00:19;4.70;99.90
53410;DHT22;66590;50.734;4.246;2023-02-25T05:02:47;4.90;99.90
53410;DHT22;66590;50.734;4.246;2023-02-25T05:05:15;4.80;99.90
53410;DHT22;66590;50.734;4.246;2023-02-25T05:07:43;4.80;99.90
53410;DHT22;66590;50.734;4.246;2023-02-25T05:10:12;4.70;99.90
53410;DHT22;66590;50.734;4.246;2023-02-25T05:12:39;4.60;99.90
53410;DHT22;66590;50.734;4.246;2023-02-25T05:15:07;4.50;99.90
53410;DHT22;66590;50.734;4.246;2023-02-25T05:17:36;4.40;99.90
53410;DHT22;66590;50.734;4.246;2023-02-25T05:20:05;4.30;99.90
53410;DHT22;66590;50.734;4.246;2023-02-25T05:22:32;4.40;99.90
53410;DHT22;66590;50.734;4.246;2023-02-25T05:24:59;4.40;99.90
53410;DHT22;66590;50.734;4.246;2023-02-25T05:27:26;4.40;99.90
53410;DHT22;66590;50.734;4.246;2023-02-25T05:29:53;4.30;99.90
53410;DHT22;66590;50.734;4.246;2023-02-25T05:32:20;4.30;99.90
53410;DHT22;66590;50.734;4.246;2023-02-25T05:34:49;4.40;99.90
53410;DHT22;66590;50.734;4.246;2023-02-25T05:37:16;4.40;99.90
53410;DHT22;66590;50.734;4.246;2023-02-25T05:39:43;4.40;99.90
53410;DHT22;66590;50.734;4.246;2023-02-25T05:42:11;4.40;99.90
53410;DHT22;66590;50.734;4.246;2023-02-25T05:44:38;4.40;99.90
53410;DHT22;66590;50.734;4.246;2023-02-25T05:47:05;4.50;99.90
53410;DHT22;66590;50.734;4.246;2023-02-25T05:49:32;4.40;99.90
53410;DHT22;66590;50.734;4.246;2023-02-25T05:52:01;4.40;99.90
53410;DHT22;66590;50.734;4.246;2023-02-25T05:54:28;4.30;99.90
53410;DHT22;66590;50.734;4.246;2023-02-25T05:56:55;4.40;99.90
53410;DHT22;66590;50.734;4.246;2023-02-25T05:59:22;4.40;99.90
53410;DHT22;66590;50.734;4.246;2023-02-25T06:01:49;4.50;99.90
53410;DHT22;66590;50.734;4.246;2023-02-25T06:04:16;4.60;99.90
53410;DHT22;66590;50.734;4.246;2023-02-25T06:06:43;4.60;99.90
53410;DHT22;66590;50.734;4.246;2023-02-25T06:09:12;4.50;99.90
53410;DHT22;66590;50.734;4.246;2023-02-25T06:11:39;4.40;99.90
53410;DHT22;66590;50.734;4.246;2023-02-25T06:14:06;4.30;99.90
53410;DHT22;66590;50.734;4.246;2023-02-25T06:16:33;4.20;99.90
53410;DHT22;66590;50.734;4.246;2023-02-25T06:19:01;4.10;99.90
53410;DHT22;66590;50.734;4.246;2023-02-25T06:21:28;4.10;99.90
53410;DHT22;66590;50.734;4.246;2023-02-25T06:23:55;4.10;99.90
53410;DHT22;66590;50.734;4.246;2023-02-25T06:26:29;4.00;99.90
53410;DHT22;66590;50.734;4.246;2023-02-25T06:28:56;4.00;99.90
53410;DHT22;66590;50.734;4.246;2023-02-25T06:31:24;3.90;99.90
53410;DHT22;66590;50.734;4.246;2023-02-25T06:33:51;3.90;99.90
53410;DHT22;66590;50.734;4.246;2023-02-25T06:36:19;3.90;99.90
53410;DHT22;66590;50.734;4.246;2023-02-25T06:38:46;3.90;99.90
53410;DHT22;66590;50.734;4.246;2023-02-25T06:41:15;3.90;99.90
53410;DHT22;66590;50.734;4.246;2023-02-25T06:43:44;4.00;99.90
53410;DHT22;66590;50.734;4.246;2023-02-25T06:46:13;3.90;99.90
53410;DHT22;66590;50.734;4.246;2023-02-25T06:48:40;4.00;99.90
53410;DHT22;66590;50.734;4.246;2023-02-25T06:51:07;4.00;99.90
53410;DHT22;66590;50.734;4.246;2023-02-25T06:53:34;4.10;99.90
53410;DHT22;66590;50.734;4.246;2023-02-25T06:56:02;4.10;99.90
53410;DHT22;66590;50.734;4.246;2023-02-25T06:58:29;4.10;99.90
53410;DHT22;66590;50.734;4.246;2023-02-25T07:00:58;4.20;99.90
53410;DHT22;66590;50.734;4.246;2023-02-25T07:03:25;4.20;99.90
53410;DHT22;66590;50.734;4.246;2023-02-25T07:05:52;4.30;99.90
53410;DHT22;66590;50.734;4.246;2023-02-25T07:08:19;4.40;99.90
53410;DHT22;66590;50.734;4.246;2023-02-25T07:10:46;4.50;99.90
53410;DHT22;66590;50.734;4.246;2023-02-25T07:13:13;4.50;99.90
53410;DHT22;66590;50.734;4.246;2023-02-25T07:15:41;4.50;99.90
53410;DHT22;66590;50.734;4.246;2023-02-25T07:18:09;4.60;99.90
53410;DHT22;66590;50.734;4.246;2023-02-25T07:20:36;4.60;99.90
53410;DHT22;66590;50.734;4.246;2023-02-25T07:23:04;4.60;99.90
53410;DHT22;66590;50.734;4.246;2023-02-25T07:25:31;4.70;99.90
53410;DHT22;66590;50.734;4.246;2023-02-25T07:27:58;4.70;99.90
53410;DHT22;66590;50.734;4.246;2023-02-25T07:30:25;4.70;99.90
53410;DHT22;66590;50.734;4.246;2023-02-25T07:32:52;4.70;99.90
53410;DHT22;66590;50.734;4.246;2023-02-25T07:35:21;4.70;99.90
53410;DHT22;66590;50.734;4.246;2023-02-25T07:37:48;4.70;99.90
53410;DHT22;66590;50.734;4.246;2023-02-25T07:40:15;4.70;99.90
53410;DHT22;66590;50.734;4.246;2023-02-25T07:42:42;4.80;99.90
53410;DHT22;66590;50.734;4.246;2023-02-25T07:45:10;4.80;99.90
53410;DHT22;66590;50.734;4.246;2023-02-25T07:47:37;4.70;99.90
53410;DHT22;66590;50.734;4.246;2023-02-25T07:50:06;4.60;99.90
53410;DHT22;66590;50.734;4.246;2023-02-25T07:52:35;4.70;99.90
53410;DHT22;66590;50.734;4.246;2023-02-25T07:55:02;4.70;99.90
53410;DHT22;66590;50.734;4.246;2023-02-25T07:57:30;4.70;99.90
53410;DHT22;66590;50.734;4.246;2023-02-25T07:59:57;4.70;99.90
53410;DHT22;66590;50.734;4.246;2023-02-25T08:02:24;4.70;99.90
53410;DHT22;66590;50.734;4.246;2023-02-25T08:04:51;4.90;99.90
53410;DHT22;66590;50.734;4.246;2023-02-25T08:07:18;4.90;99.90
53410;DHT22;66590;50.734;4.246;2023-02-25T08:09:50;4.90;99.90
53410;DHT22;66590;50.734;4.246;2023-02-25T08:12:17;4.90;99.90
53410;DHT22;66590;50.734;4.246;2023-02-25T08:14:46;5.00;99.90
53410;DHT22;66590;50.734;4.246;2023-02-25T08:17:14;5.10;99.90
53410;DHT22;66590;50.734;4.246;2023-02-25T08:19:41;5.30;99.90
53410;DHT22;66590;50.734;4.246;2023-02-25T08:22:08;5.30;99.90
53410;DHT22;66590;50.734;4.246;2023-02-25T08:24:35;5.20;99.90
53410;DHT22;66590;50.734;4.246;2023-02-25T08:27:04;5.20;99.90
53410;DHT22;66590;50.734;4.246;2023-02-25T08:29:31;5.40;99.90
53410;DHT22;66590;50.734;4.246;2023-02-25T08:31:58;5.40;99.90
53410;DHT22;66590;50.734;4.246;2023-02-25T08:34:26;5.40;99.90
53410;DHT22;66590;50.734;4.246;2023-02-25T08:36:53;5.40;99.90
53410;DHT22;66590;50.734;4.246;2023-02-25T08:39:21;5.50;99.90
53410;DHT22;66590;50.734;4.246;2023-02-25T08:41:50;5.50;99.90
53410;DHT22;66590;50.734;4.246;2023-02-25T08:44:23;5.40;99.90
53410;DHT22;66590;50.734;4.246;2023-02-25T08:46:55;5.50;99.90
53410;DHT22;66590;50.734;4.246;2023-02-25T08:49:22;5.60;99.90
53410;DHT22;66590;50.734;4.246;2023-02-25T08:51:49;5.80;99.90
53410;DHT22;66590;50.734;4.246;2023-02-25T08:54:16;5.90;99.90
53410;DHT22;66590;50.734;4.246;2023-02-25T08:56:43;5.90;99.90
53410;DHT22;66590;50.734;4.246;2023-02-25T08:59:13;5.90;99.90
53410;DHT22;66590;50.734;4.246;2023-02-25T09:01:41;5.70;99.90
53410;DHT22;66590;50.734;4.246;2023-02-25T09:04:09;5.70;99.90
53410;DHT22;66590;50.734;4.246;2023-02-25T09:06:36;5.70;99.90
53410;DHT22;66590;50.734;4.246;2023-02-25T09:09:06;5.80;99.90
53410;DHT22;66590;50.734;4.246;2023-02-25T09:11:35;5.90;99.90
53410;DHT22;66590;50.734;4.246;2023-02-25T09:14:02;6.00;99.90
53410;DHT22;66590;50.734;4.246;2023-02-25T09:16:33;6.00;99.90
53410;DHT22;66590;50.734;4.246;2023-02-25T09:19:03;6.00;99.90
53410;DHT22;66590;50.734;4.246;2023-02-25T09:21:30;6.20;99.90
53410;DHT22;66590;50.734;4.246;2023-02-25T09:23:58;6.40;99.90
53410;DHT22;66590;50.734;4.246;2023-02-25T09:26:25;6.40;99.90
53410;DHT22;66590;50.734;4.246;2023-02-25T09:28:52;6.80;99.90
53410;DHT22;66590;50.734;4.246;2023-02-25T09:31:23;7.20;99.90
53410;DHT22;66590;50.734;4.246;2023-02-25T09:33:51;7.40;99.90
53410;DHT22;66590;50.734;4.246;2023-02-25T09:36:20;7.60;99.90
53410;DHT22;66590;50.734;4.246;2023-02-25T09:38:49;7.70;99.90
53410;DHT22;66590;50.734;4.246;2023-02-25T09:41:24;7.40;99.90
53410;DHT22;66590;50.734;4.246;2023-02-25T09:44:01;7.10;99.90
53410;DHT22;66590;50.734;4.246;2023-02-25T09:46:30;6.90;99.90
53410;DHT22;66590;50.734;4.246;2023-02-25T09:49:00;6.50;99.90
53410;DHT22;66590;50.734;4.246;2023-02-25T09:51:34;6.20;99.90
53410;DHT22;66590;50.734;4.246;2023-02-25T09:54:12;6.00;99.90
53410;DHT22;66590;50.734;4.246;2023-02-25T09:56:41;5.90;99.90
53410;DHT22;66590;50.734;4.246;2023-02-25T09:59:13;5.80;99.90
53410;DHT22;66590;50.734;4.246;2023-02-25T10:01:45;6.10;99.90
53410;DHT22;66590;50.734;4.246;2023-02-25T10:04:15;6.50;99.90
53410;DHT22;66590;50.734;4.246;2023-02-25T10:06:50;6.80;99.90
53410;DHT22;66590;50.734;4.246;2023-02-25T10:09:26;6.90;99.90
53410;DHT22;66590;50.734;4.246;2023-02-25T10:12:03;7.10;99.90
53410;DHT22;66590;50.734;4.246;2023-02-25T10:14:50;7.40;99.90
53410;DHT22;66590;50.734;4.246;2023-02-25T10:17:27;7.50;99.90
53410;DHT22;66590;50.734;4.246;2023-02-25T10:20:00;7.70;99.90
53410;DHT22;66590;50.734;4.246;2023-02-25T10:22:42;8.00;99.90
53410;DHT22;66590;50.734;4.246;2023-02-25T10:25:14;8.40;99.90
53410;DHT22;66590;50.734;4.246;2023-02-25T10:27:46;8.70;99.90
53410;DHT22;66590;50.734;4.246;2023-02-25T10:30:20;8.40;99.90
53410;DHT22;66590;50.734;4.246;2023-02-25T10:32:49;8.70;99.90
53410;DHT22;66590;50.734;4.246;2023-02-25T10:35:20;8.90;99.90
53410;DHT22;66590;50.734;4.246;2023-02-25T10:37:50;8.70;99.90
53410;DHT22;66590;50.734;4.246;2023-02-25T10:40:19;8.70;99.90
53410;DHT22;66590;50.734;4.246;2023-02-25T10:42:49;8.70;99.90
53410;DHT22;66590;50.734;4.246;2023-02-25T10:45:21;8.50;99.90
53410;DHT22;66590;50.734;4.246;2023-02-25T10:47:54;8.40;99.90
53410;DHT22;66590;50.734;4.246;2023-02-25T10:50:25;8.40;99.90
53410;DHT22;66590;50.734;4.246;2023-02-25T10:53:15;8.70;99.90
53410;DHT22;66590;50.734;4.246;2023-02-25T10:55:47;8.80;99.90
53410;DHT22;66590;50.734;4.246;2023-02-25T10:58:34;8.20;99.90
53410;DHT22;66590;50.734;4.246;2023-02-25T11:01:11;7.80;99.90
53410;DHT22;66590;50.734;4.246;2023-02-25T11:03:44;7.70;99.90
53410;DHT22;66590;50.734;4.246;2023-02-25T11:06:18;7.80;99.90
53410;DHT22;66590;50.734;4.246;2023-02-25T11:08:51;7.80;99.90
53410;DHT22;66590;50.734;4.246;2023-02-25T11:11:20;7.70;99.90
53410;DHT22;66590;50.734;4.246;2023-02-25T11:13:55;7.20;99.90
53410;DHT22;66590;50.734;4.246;2023-02-25T11:16:25;6.60;99.90
53410;DHT22;66590;50.734;4.246;2023-02-25T11:18:55;6.60;99.90
53410;DHT22;66590;50.734;4.246;2023-02-25T11:21:29;6.70;99.90
53410;DHT22;66590;50.734;4.246;2023-02-25T11:24:00;7.00;99.90
53410;DHT22;66590;50.734;4.246;2023-02-25T11:26:30;7.30;99.90
53410;DHT22;66590;50.734;4.246;2023-02-25T11:29:00;7.50;99.90
53410;DHT22;66590;50.734;4.246;2023-02-25T11:31:32;7.50;99.90
53410;DHT22;66590;50.734;4.246;2023-02-25T11:34:03;7.70;99.90
53410;DHT22;66590;50.734;4.246;2023-02-25T11:36:33;8.00;99.90
53410;DHT22;66590;50.734;4.246;2023-02-25T11:39:13;8.40;99.90
53410;DHT22;66590;50.734;4.246;2023-02-25T11:41:40;8.60;99.90
53410;DHT22;66590;50.734;4.246;2023-02-25T11:44:18;8.80;99.90
53410;DHT22;66590;50.734;4.246;2023-02-25T11:46:53;9.00;99.90
53410;DHT22;66590;50.734;4.246;2023-02-25T11:49:27;9.00;99.90
53410;DHT22;66590;50.734;4.246;2023-02-25T11:52:02;9.30;99.90
53410;DHT22;66590;50.734;4.246;2023-02-25T11:54:38;9.40;99.90
53410;DHT22;66590;50.734;4.246;2023-02-25T11:57:13;9.30;99.90
53410;DHT22;66590;50.734;4.246;2023-02-25T11:59:50;9.50;99.90
53410;DHT22;66590;50.734;4.246;2023-02-25T12:02:36;9.40;99.90
53410;DHT22;66590;50.734;4.246;2023-02-25T12:08:17;9.60;99.90
53410;DHT22;66590;50.734;4.246;2023-02-25T12:17:28;10.40;99.90
53410;DHT22;66590;50.734;4.246;2023-02-25T12:20:30;10.40;99.90
53410;DHT22;66590;50.734;4.246;2023-02-25T12:26:12;10.10;99.90
53410;DHT22;66590;50.734;4.246;2023-02-25T12:28:53;9.80;99.90
53410;DHT22;66590;50.734;4.246;2023-02-25T12:31:45;9.60;99.90
53410;DHT22;66590;50.734;4.246;2023-02-25T12:37:44;8.30;99.90
53410;DHT22;66590;50.734;4.246;2023-02-25T12:40:29;7.60;99.90
53410;DHT22;66590;50.734;4.246;2023-02-25T12:43:10;7.20;99.90
53410;DHT22;66590;50.734;4.246;2023-02-25T12:46:04;7.00;99.90
53410;DHT22;66590;50.734;4.246;2023-02-25T12:48:52;7.10;99.90
53410;DHT22;66590;50.734;4.246;2023-02-25T12:51:35;7.60;99.90
53410;DHT22;66590;50.734;4.246;2023-02-25T12:54:20;8.00;99.90
53410;DHT22;66590;50.734;4.246;2023-02-25T12:57:16;8.30;99.90
53410;DHT22;66590;50.734;4.246;2023-02-25T12:59:59;8.20;99.90
53410;DHT22;66590;50.734;4.246;2023-02-25T13:02:41;8.20;99.90
53410;DHT22;66590;50.734;4.246;2023-02-25T13:05:25;8.40;99.90
53410;DHT22;66590;50.734;4.246;2023-02-25T13:08:23;8.60;99.90
53410;DHT22;66590;50.734;4.246;2023-02-25T13:10:56;8.70;99.90
53410;DHT22;66590;50.734;4.246;2023-02-25T13:13:47;8.80;99.90
53410;DHT22;66590;50.734;4.246;2023-02-25T13:16:25;8.90;99.90
53410;DHT22;66590;50.734;4.246;2023-02-25T13:19:13;9.00;99.90
53410;DHT22;66590;50.734;4.246;2023-02-25T13:21:54;9.20;99.90
53410;DHT22;66590;50.734;4.246;2023-02-25T13:24:37;9.30;99.90
53410;DHT22;66590;50.734;4.246;2023-02-25T13:30:45;9.10;99.90
53410;DHT22;66590;50.734;4.246;2023-02-25T13:33:28;9.40;99.90
53410;DHT22;66590;50.734;4.246;2023-02-25T13:36:03;9.30;99.90
53410;DHT22;66590;50.734;4.246;2023-02-25T13:38:46;9.40;99.90
53410;DHT22;66590;50.734;4.246;2023-02-25T13:41:37;9.50;99.90
53410;DHT22;66590;50.734;4.246;2023-02-25T13:44:36;9.70;99.90
53410;DHT22;66590;50.734;4.246;2023-02-25T13:47:26;9.60;99.90
53410;DHT22;66590;50.734;4.246;2023-02-25T13:50:25;9.60;99.90
53410;DHT22;66590;50.734;4.246;2023-02-25T13:56:09;9.60;99.90
53410;DHT22;66590;50.734;4.246;2023-02-25T13:58:53;9.50;99.90
53410;DHT22;66590;50.734;4.246;2023-02-25T14:01:30;9.50;99.90
53410;DHT22;66590;50.734;4.246;2023-02-25T15:39:50;7.00;99.90
53410;DHT22;66590;50.734;4.246;2023-02-25T15:42:48;7.10;99.90
53410;DHT22;66590;50.734;4.246;2023-02-25T15:45:42;7.20;99.90
53410;DHT22;66590;50.734;4.246;2023-02-25T15:48:37;7.20;99.90
53410;DHT22;66590;50.734;4.246;2023-02-25T15:51:08;7.10;99.90
53410;DHT22;66590;50.734;4.246;2023-02-25T15:53:43;7.10;99.90
53410;DHT22;66590;50.734;4.246;2023-02-25T15:56:42;7.10;99.90
53410;DHT22;66590;50.734;4.246;2023-02-25T15:59:41;7.10;99.90
53410;DHT22;66590;50.734;4.246;2023-02-25T16:02:37;7.00;99.90
53410;DHT22;66590;50.734;4.246;2023-02-25T16:05:20;7.20;99.90
53410;DHT22;66590;50.734;4.246;2023-02-25T16:07:50;7.30;99.90
53410;DHT22;66590;50.734;4.246;2023-02-25T16:10:26;7.40;99.90
53410;DHT22;66590;50.734;4.246;2023-02-25T16:12:56;7.40;99.90
53410;DHT22;66590;50.734;4.246;2023-02-25T16:15:29;7.70;99.90
53410;DHT22;66590;50.734;4.246;2023-02-25T16:18:14;7.70;99.90
53410;DHT22;66590;50.734;4.246;2023-02-25T16:20:45;7.90;99.90
53410;DHT22;66590;50.734;4.246;2023-02-25T16:23:14;8.10;99.90
53410;DHT22;66590;50.734;4.246;2023-02-25T16:25:48;8.20;99.90
53410;DHT22;66590;50.734;4.246;2023-02-25T16:28:26;8.20;99.90
53410;DHT22;66590;50.734;4.246;2023-02-25T16:31:06;8.20;99.90
53410;DHT22;66590;50.734;4.246;2023-02-25T16:33:41;8.10;99.90
53410;DHT22;66590;50.734;4.246;2023-02-25T16:36:14;8.00;99.90
53410;DHT22;66590;50.734;4.246;2023-02-25T16:38:51;7.90;99.90
53410;DHT22;66590;50.734;4.246;2023-02-25T16:41:22;7.90;99.90
53410;DHT22;66590;50.734;4.246;2023-02-25T16:44:07;7.90;99.90
53410;DHT22;66590;50.734;4.246;2023-02-25T16:46:36;8.00;99.90
53410;DHT22;66590;50.734;4.246;2023-02-25T16:49:07;7.80;99.90
53410;DHT22;66590;50.734;4.246;2023-02-25T16:51:37;7.70;99.90
53410;DHT22;66590;50.734;4.246;2023-02-25T16:54:14;7.40;99.90
53410;DHT22;66590;50.734;4.246;2023-02-25T16:56:54;7.10;99.90
53410;DHT22;66590;50.734;4.246;2023-02-25T16:59:25;7.10;99.90
53410;DHT22;66590;50.734;4.246;2023-02-25T17:01:58;7.00;99.90
53410;DHT22;66590;50.734;4.246;2023-02-25T17:04:31;7.10;99.90
53410;DHT22;66590;50.734;4.246;2023-02-25T17:07:12;6.90;99.90
53410;DHT22;66590;50.734;4.246;2023-02-25T17:09:44;6.90;99.90
53410;DHT22;66590;50.734;4.246;2023-02-25T17:12:16;6.80;99.90
53410;DHT22;66590;50.734;4.246;2023-02-25T17:14:48;6.80;99.90
53410;DHT22;66590;50.734;4.246;2023-02-25T17:17:30;6.80;99.90
53410;DHT22;66590;50.734;4.246;2023-02-25T17:20:04;6.50;99.90
53410;DHT22;66590;50.734;4.246;2023-02-25T17:22:32;6.60;99.90
53410;DHT22;66590;50.734;4.246;2023-02-25T17:25:00;6.70;99.90
53410;DHT22;66590;50.734;4.246;2023-02-25T17:27:28;6.70;99.90
53410;DHT22;66590;50.734;4.246;2023-02-25T17:30:01;6.70;99.90
53410;DHT22;66590;50.734;4.246;2023-02-25T17:32:29;6.50;99.90
53410;DHT22;66590;50.734;4.246;2023-02-25T17:35:00;6.30;99.90
53410;DHT22;66590;50.734;4.246;2023-02-25T17:37:31;6.40;99.90
53410;DHT22;66590;50.734;4.246;2023-02-25T17:40:56;6.40;99.90
53410;DHT22;66590;50.734;4.246;2023-02-25T17:43:31;6.30;99.90
53410;DHT22;66590;50.734;4.246;2023-02-25T17:46:30;6.30;99.90
53410;DHT22;66590;50.734;4.246;2023-02-25T17:49:24;6.20;99.90
53410;DHT22;66590;50.734;4.246;2023-02-25T17:52:16;6.20;99.90
53410;DHT22;66590;50.734;4.246;2023-02-25T17:54:53;6.30;99.90
53410;DHT22;66590;50.734;4.246;2023-02-25T17:57:37;6.30;99.90
53410;DHT22;66590;50.734;4.246;2023-02-25T18:00:40;6.20;99.90
53410;DHT22;66590;50.734;4.246;2023-02-25T18:03:49;6.10;99.90
53410;DHT22;66590;50.734;4.246;2023-02-25T18:10:03;5.90;99.90
53410;DHT22;66590;50.734;4.246;2023-02-25T18:13:02;6.00;99.90
53410;DHT22;66590;50.734;4.246;2023-02-25T18:15:47;6.00;99.90
53410;DHT22;66590;50.734;4.246;2023-02-25T18:21:50;6.00;99.90
53410;DHT22;66590;50.734;4.246;2023-02-25T18:24:58;5.90;99.90
53410;DHT22;66590;50.734;4.246;2023-02-25T18:27:44;5.80;99.90
53410;DHT22;66590;50.734;4.246;2023-02-25T18:30:20;5.80;99.90
53410;DHT22;66590;50.734;4.246;2023-02-25T18:33:17;5.80;99.90
53410;DHT22;66590;50.734;4.246;2023-02-25T18:35:54;5.80;99.90
53410;DHT22;66590;50.734;4.246;2023-02-25T18:38:29;5.80;99.90
53410;DHT22;66590;50.734;4.246;2023-02-25T18:41:12;5.80;99.90
53410;DHT22;66590;50.734;4.246;2023-02-25T18:43:43;5.90;99.90
53410;DHT22;66590;50.734;4.246;2023-02-25T18:46:28;5.90;99.90
53410;DHT22;66590;50.734;4.246;2023-02-25T18:49:08;5.80;99.90
53410;DHT22;66590;50.734;4.246;2023-02-25T18:51:48;5.70;99.90
53410;DHT22;66590;50.734;4.246;2023-02-25T18:54:17;5.60;99.90
53410;DHT22;66590;50.734;4.246;2023-02-25T18:56:48;5.60;99.90
53410;DHT22;66590;50.734;4.246;2023-02-25T18:59:29;5.50;99.90
53410;DHT22;66590;50.734;4.246;2023-02-25T19:02:14;5.50;99.90
53410;DHT22;66590;50.734;4.246;2023-02-25T19:04:47;5.60;99.90
53410;DHT22;66590;50.734;4.246;2023-02-25T19:07:30;5.60;99.90
53410;DHT22;66590;50.734;4.246;2023-02-25T19:10:00;5.40;99.90
53410;DHT22;66590;50.734;4.246;2023-02-25T19:12:36;5.40;99.90
53410;DHT22;66590;50.734;4.246;2023-02-25T19:15:19;5.30;99.90
53410;DHT22;66590;50.734;4.246;2023-02-25T19:17:51;5.30;99.90
53410;DHT22;66590;50.734;4.246;2023-02-25T19:20:20;5.30;99.90
53410;DHT22;66590;50.734;4.246;2023-02-25T19:22:48;5.20;99.90
53410;DHT22;66590;50.734;4.246;2023-02-25T19:25:20;5.30;99.90
53410;DHT22;66590;50.734;4.246;2023-02-25T19:27:50;5.20;99.90
53410;DHT22;66590;50.734;4.246;2023-02-25T19:30:20;5.20;99.90
53410;DHT22;66590;50.734;4.246;2023-02-25T19:32:47;5.10;99.90
53410;DHT22;66590;50.734;4.246;2023-02-25T19:35:15;5.10;99.90
53410;DHT22;66590;50.734;4.246;2023-02-25T19:37:43;5.00;99.90
53410;DHT22;66590;50.734;4.246;2023-02-25T19:40:12;4.90;99.90